sensor_id;sensor_type;location;lat;lon;timestamp;P1;durP1;ratioP1;P2;durP2;ratioP2
7193;SDS011;3638;48.820;9.244;2023-06-24T00:01:42;5.75;;;4.82;;
7193;SDS011;3638;48.820;9.244;2023-06-24T00:04:09;5.90;;;5.30;;
7193;SDS011;3638;48.820;9.244;2023-06-24T00:06:39;7.18;;;5.05;;
7193;SDS011;3638;48.820;9.244;2023-06-24T00:09:06;4.97;;;4.47;;
7193;SDS011;3638;48.820;9.244;2023-06-24T00:11:33;6.07;;;5.47;;
7193;SDS011;3638;48.820;9.244;2023-06-24T00:14:00;7.18;;;5.32;;
7193;SDS011;3638;48.820;9.244;2023-06-24T00:16:27;5.43;;;4.93;;
7193;SDS011;3638;48.820;9.244;2023-06-24T00:18:54;5.45;;;4.95;;
7193;SDS011;3638;48.820;9.244;2023-06-24T00:21:26;5.60;;;4.72;;
7193;SDS011;3638;48.820;9.244;2023-06-24T00:23:56;6.30;;;5.15;;
7193;SDS011;3638;48.820;9.244;2023-06-24T00:26:24;5.82;;;4.85;;
7193;SDS011;3638;48.820;9.244;2023-06-24T00:28:51;5.70;;;4.97;;
7193;SDS011;3638;48.820;9.244;2023-06-24T00:31:18;6.45;;;5.57;;
7193;SDS011;3638;48.820;9.244;2023-06-24T00:33:46;5.97;;;5.38;;
7193;SDS011;3638;48.820;9.244;2023-06-24T00:36:14;5.72;;;5.10;;
7193;SDS011;3638;48.820;9.244;2023-06-24T00:38:41;5.75;;;5.10;;
7193;SDS011;3638;48.820;9.244;2023-06-24T00:41:10;7.05;;;5.82;;
7193;SDS011;3638;48.820;9.244;2023-06-24T00:43:37;5.95;;;5.35;;
7193;SDS011;3638;48.820;9.244;2023-06-24T00:46:04;6.22;;;5.40;;
7193;SDS011;3638;48.820;9.244;2023-06-24T00:48:31;6.30;;;5.30;;
7193;SDS011;3638;48.820;9.244;2023-06-24T00:50:58;6.32;;;5.40;;
7193;SDS011;3638;48.820;9.244;2023-06-24T00:53:26;5.50;;;4.90;;
7193;SDS011;3638;48.820;9.244;2023-06-24T00:55:53;6.10;;;5.30;;
7193;SDS011;3638;48.820;9.244;2023-06-24T00:58:23;5.90;;;5.28;;
7193;SDS011;3638;48.820;9.244;2023-06-24T01:00:50;6.50;;;5.80;;
7193;SDS011;3638;48.820;9.244;2023-06-24T01:03:22;5.78;;;5.18;;
7193;SDS011;3638;48.820;9.244;2023-06-24T01:05:50;5.73;;;5.20;;
7193;SDS011;3638;48.820;9.244;2023-06-24T01:08:18;5.78;;;5.28;;
7193;SDS011;3638;48.820;9.244;2023-06-24T01:10:47;6.03;;;5.40;;
7193;SDS011;3638;48.820;9.244;2023-06-24T01:13:15;5.97;;;5.43;;
7193;SDS011;3638;48.820;9.244;2023-06-24T01:15:43;5.90;;;5.23;;
7193;SDS011;3638;48.820;9.244;2023-06-24T01:18:11;5.88;;;5.28;;
7193;SDS011;3638;48.820;9.244;2023-06-24T01:20:47;5.97;;;5.25;;
7193;SDS011;3638;48.820;9.244;2023-06-24T01:23:33;6.70;;;5.22;;
7193;SDS011;3638;48.820;9.244;2023-06-24T01:29:36;5.78;;;5.07;;
7193;SDS011;3638;48.820;9.244;2023-06-24T01:32:21;6.72;;;5.07;;
7193;SDS011;3638;48.820;9.244;2023-06-24T01:34:55;5.90;;;5.30;;
7193;SDS011;3638;48.820;9.244;2023-06-24T01:37:26;6.50;;;5.40;;
7193;SDS011;3638;48.820;9.244;2023-06-24T01:40:00;6.65;;;4.88;;
7193;SDS011;3638;48.820;9.244;2023-06-24T01:42:34;6.40;;;5.25;;
7193;SDS011;3638;48.820;9.244;2023-06-24T01:45:05;6.55;;;5.63;;
7193;SDS011;3638;48.820;9.244;2023-06-24T01:47:38;8.05;;;6.18;;
7193;SDS011;3638;48.820;9.244;2023-06-24T01:50:10;8.30;;;6.72;;
7193;SDS011;3638;48.820;9.244;2023-06-24T01:52:39;7.18;;;6.18;;
7193;SDS011;3638;48.820;9.244;2023-06-24T01:55:09;8.75;;;6.18;;
7193;SDS011;3638;48.820;9.244;2023-06-24T01:57:38;7.68;;;6.95;;
7193;SDS011;3638;48.820;9.244;2023-06-24T02:00:08;8.57;;;6.85;;
7193;SDS011;3638;48.820;9.244;2023-06-24T02:02:38;8.93;;;7.43;;
7193;SDS011;3638;48.820;9.244;2023-06-24T02:05:06;10.82;;;7.82;;
7193;SDS011;3638;48.820;9.244;2023-06-24T02:07:36;10.48;;;7.57;;
7193;SDS011;3638;48.820;9.244;2023-06-24T02:10:04;11.57;;;8.55;;
7193;SDS011;3638;48.820;9.244;2023-06-24T02:12:34;11.48;;;8.30;;
7193;SDS011;3638;48.820;9.244;2023-06-24T02:15:02;10.52;;;8.43;;
7193;SDS011;3638;48.820;9.244;2023-06-24T02:17:32;9.40;;;8.05;;
7193;SDS011;3638;48.820;9.244;2023-06-24T02:20:00;9.00;;;7.65;;
7193;SDS011;3638;48.820;9.244;2023-06-24T02:22:30;8.80;;;6.78;;
7193;SDS011;3638;48.820;9.244;2023-06-24T02:24:57;9.05;;;6.88;;
7193;SDS011;3638;48.820;9.244;2023-06-24T02:27:25;8.60;;;7.25;;
7193;SDS011;3638;48.820;9.244;2023-06-24T02:29:52;8.60;;;6.85;;
7193;SDS011;3638;48.820;9.244;2023-06-24T02:32:20;7.55;;;6.47;;
7193;SDS011;3638;48.820;9.244;2023-06-24T02:34:47;7.30;;;6.15;;
7193;SDS011;3638;48.820;9.244;2023-06-24T02:37:16;8.18;;;6.10;;
7193;SDS011;3638;48.820;9.244;2023-06-24T02:39:43;7.75;;;6.40;;
7193;SDS011;3638;48.820;9.244;2023-06-24T02:42:10;6.93;;;5.70;;
7193;SDS011;3638;48.820;9.244;2023-06-24T02:44:37;7.45;;;6.38;;
7193;SDS011;3638;48.820;9.244;2023-06-24T02:47:05;7.10;;;5.65;;
7193;SDS011;3638;48.820;9.244;2023-06-24T02:49:35;6.32;;;5.40;;
7193;SDS011;3638;48.820;9.244;2023-06-24T02:52:05;6.63;;;5.72;;
7193;SDS011;3638;48.820;9.244;2023-06-24T02:54:34;7.63;;;6.20;;
7193;SDS011;3638;48.820;9.244;2023-06-24T02:57:04;6.07;;;5.47;;
7193;SDS011;3638;48.820;9.244;2023-06-24T02:59:31;6.47;;;5.88;;
7193;SDS011;3638;48.820;9.244;2023-06-24T03:01:58;6.63;;;5.93;;
7193;SDS011;3638;48.820;9.244;2023-06-24T03:04:26;7.97;;;6.07;;
7193;SDS011;3638;48.820;9.244;2023-06-24T03:06:53;7.93;;;5.78;;
7193;SDS011;3638;48.820;9.244;2023-06-24T03:09:21;8.77;;;6.07;;
7193;SDS011;3638;48.820;9.244;2023-06-24T03:11:50;6.32;;;5.70;;
7193;SDS011;3638;48.820;9.244;2023-06-24T03:14:16;7.75;;;6.88;;
7193;SDS011;3638;48.820;9.244;2023-06-24T03:16:44;7.18;;;6.32;;
7193;SDS011;3638;48.820;9.244;2023-06-24T03:19:11;7.65;;;6.68;;
7193;SDS011;3638;48.820;9.244;2023-06-24T03:21:38;8.07;;;6.77;;
7193;SDS011;3638;48.820;9.244;2023-06-24T03:24:05;8.30;;;6.40;;
7193;SDS011;3638;48.820;9.244;2023-06-24T03:26:32;7.32;;;6.60;;
7193;SDS011;3638;48.820;9.244;2023-06-24T03:29:02;7.53;;;6.17;;
7193;SDS011;3638;48.820;9.244;2023-06-24T03:31:29;8.57;;;6.70;;
7193;SDS011;3638;48.820;9.244;2023-06-24T03:33:56;6.90;;;6.20;;
7193;SDS011;3638;48.820;9.244;2023-06-24T03:36:23;7.15;;;6.35;;
7193;SDS011;3638;48.820;9.244;2023-06-24T03:38:51;8.20;;;6.45;;
7193;SDS011;3638;48.820;9.244;2023-06-24T03:41:18;8.02;;;6.47;;
7193;SDS011;3638;48.820;9.244;2023-06-24T03:43:46;8.68;;;6.43;;
7193;SDS011;3638;48.820;9.244;2023-06-24T03:46:14;7.22;;;6.53;;
7193;SDS011;3638;48.820;9.244;2023-06-24T03:48:41;7.60;;;6.72;;
7193;SDS011;3638;48.820;9.244;2023-06-24T03:51:09;8.02;;;6.18;;
7193;SDS011;3638;48.820;9.244;2023-06-24T03:53:36;6.15;;;5.55;;
7193;SDS011;3638;48.820;9.244;2023-06-24T03:56:03;9.23;;;5.97;;
7193;SDS011;3638;48.820;9.244;2023-06-24T03:58:31;7.93;;;5.65;;
7193;SDS011;3638;48.820;9.244;2023-06-24T04:00:58;7.57;;;6.18;;
7193;SDS011;3638;48.820;9.244;2023-06-24T04:03:28;6.55;;;5.78;;
7193;SDS011;3638;48.820;9.244;2023-06-24T04:05:56;7.40;;;6.28;;
7193;SDS011;3638;48.820;9.244;2023-06-24T04:08:26;6.70;;;5.85;;
7193;SDS011;3638;48.820;9.244;2023-06-24T04:10:54;9.77;;;5.50;;
7193;SDS011;3638;48.820;9.244;2023-06-24T04:13:21;6.40;;;5.78;;
7193;SDS011;3638;48.820;9.244;2023-06-24T04:15:48;7.10;;;6.00;;
7193;SDS011;3638;48.820;9.244;2023-06-24T04:18:15;6.20;;;5.53;;
7193;SDS011;3638;48.820;9.244;2023-06-24T04:20:44;7.38;;;6.00;;
7193;SDS011;3638;48.820;9.244;2023-06-24T04:23:11;7.47;;;5.75;;
7193;SDS011;3638;48.820;9.244;2023-06-24T04:25:39;6.75;;;6.05;;
7193;SDS011;3638;48.820;9.244;2023-06-24T04:28:07;6.05;;;5.35;;
7193;SDS011;3638;48.820;9.244;2023-06-24T04:30:33;6.35;;;5.55;;
7193;SDS011;3638;48.820;9.244;2023-06-24T04:33:03;7.22;;;6.32;;
7193;SDS011;3638;48.820;9.244;2023-06-24T04:35:30;7.47;;;6.00;;
7193;SDS011;3638;48.820;9.244;2023-06-24T04:37:58;6.10;;;5.45;;
7193;SDS011;3638;48.820;9.244;2023-06-24T04:40:25;7.10;;;5.65;;
7193;SDS011;3638;48.820;9.244;2023-06-24T04:42:52;5.57;;;4.80;;
7193;SDS011;3638;48.820;9.244;2023-06-24T04:45:19;5.78;;;5.00;;
7193;SDS011;3638;48.820;9.244;2023-06-24T04:47:46;5.88;;;5.07;;
7193;SDS011;3638;48.820;9.244;2023-06-24T04:50:13;6.82;;;4.97;;
7193;SDS011;3638;48.820;9.244;2023-06-24T04:52:40;6.30;;;5.15;;
7193;SDS011;3638;48.820;9.244;2023-06-24T04:55:09;8.02;;;4.82;;
7193;SDS011;3638;48.820;9.244;2023-06-24T04:57:36;6.32;;;5.10;;
7193;SDS011;3638;48.820;9.244;2023-06-24T05:00:03;5.97;;;5.38;;
7193;SDS011;3638;48.820;9.244;2023-06-24T05:02:32;5.40;;;4.90;;
7193;SDS011;3638;48.820;9.244;2023-06-24T05:04:59;5.40;;;4.82;;
7193;SDS011;3638;48.820;9.244;2023-06-24T05:07:26;6.22;;;4.72;;
7193;SDS011;3638;48.820;9.244;2023-06-24T05:09:53;6.70;;;5.40;;
7193;SDS011;3638;48.820;9.244;2023-06-24T05:12:21;6.38;;;5.60;;
7193;SDS011;3638;48.820;9.244;2023-06-24T05:14:49;8.30;;;5.38;;
7193;SDS011;3638;48.820;9.244;2023-06-24T05:17:17;5.80;;;5.00;;
7193;SDS011;3638;48.820;9.244;2023-06-24T05:19:44;5.70;;;5.05;;
7193;SDS011;3638;48.820;9.244;2023-06-24T05:22:11;5.57;;;4.70;;
7193;SDS011;3638;48.820;9.244;2023-06-24T05:24:38;5.97;;;5.38;;
7193;SDS011;3638;48.820;9.244;2023-06-24T05:27:06;6.40;;;5.43;;
7193;SDS011;3638;48.820;9.244;2023-06-24T05:29:35;6.85;;;5.28;;
7193;SDS011;3638;48.820;9.244;2023-06-24T05:32:02;6.68;;;5.30;;
7193;SDS011;3638;48.820;9.244;2023-06-24T05:34:30;6.32;;;5.40;;
7193;SDS011;3638;48.820;9.244;2023-06-24T05:36:58;7.35;;;5.15;;
7193;SDS011;3638;48.820;9.244;2023-06-24T05:39:25;5.95;;;5.05;;
7193;SDS011;3638;48.820;9.244;2023-06-24T05:41:52;6.38;;;5.57;;
7193;SDS011;3638;48.820;9.244;2023-06-24T05:44:19;5.40;;;4.90;;
7193;SDS011;3638;48.820;9.244;2023-06-24T05:46:49;5.75;;;5.10;;
7193;SDS011;3638;48.820;9.244;2023-06-24T05:49:16;5.95;;;4.93;;
7193;SDS011;3638;48.820;9.244;2023-06-24T05:51:43;5.60;;;5.00;;
7193;SDS011;3638;48.820;9.244;2023-06-24T05:54:10;5.75;;;5.18;;
7193;SDS011;3638;48.820;9.244;2023-06-24T05:56:37;5.97;;;5.22;;
7193;SDS011;3638;48.820;9.244;2023-06-24T05:59:03;7.47;;;5.00;;
7193;SDS011;3638;48.820;9.244;2023-06-24T06:01:30;6.32;;;5.20;;
7193;SDS011;3638;48.820;9.244;2023-06-24T06:03:59;6.38;;;5.40;;
7193;SDS011;3638;48.820;9.244;2023-06-24T06:06:25;6.45;;;5.55;;
7193;SDS011;3638;48.820;9.244;2023-06-24T06:08:52;5.53;;;4.38;;
7193;SDS011;3638;48.820;9.244;2023-06-24T06:11:19;5.00;;;4.50;;
7193;SDS011;3638;48.820;9.244;2023-06-24T06:13:46;5.22;;;4.70;;
7193;SDS011;3638;48.820;9.244;2023-06-24T06:16:13;6.05;;;4.88;;
7193;SDS011;3638;48.820;9.244;2023-06-24T06:18:40;5.25;;;4.75;;
7193;SDS011;3638;48.820;9.244;2023-06-24T06:21:08;5.75;;;5.05;;
7193;SDS011;3638;48.820;9.244;2023-06-24T06:23:35;5.72;;;5.13;;
7193;SDS011;3638;48.820;9.244;2023-06-24T06:26:02;5.20;;;4.70;;
7193;SDS011;3638;48.820;9.244;2023-06-24T06:28:29;5.32;;;4.63;;
7193;SDS011;3638;48.820;9.244;2023-06-24T06:30:56;5.30;;;4.63;;
7193;SDS011;3638;48.820;9.244;2023-06-24T06:33:23;7.88;;;5.03;;
7193;SDS011;3638;48.820;9.244;2023-06-24T06:35:50;4.95;;;4.45;;
7193;SDS011;3638;48.820;9.244;2023-06-24T06:38:18;5.13;;;4.35;;
7193;SDS011;3638;48.820;9.244;2023-06-24T06:40:45;5.57;;;4.88;;
7193;SDS011;3638;48.820;9.244;2023-06-24T06:43:12;5.65;;;4.38;;
7193;SDS011;3638;48.820;9.244;2023-06-24T06:45:39;6.00;;;4.25;;
7193;SDS011;3638;48.820;9.244;2023-06-24T06:48:06;6.22;;;4.40;;
7193;SDS011;3638;48.820;9.244;2023-06-24T06:50:33;7.65;;;4.53;;
7193;SDS011;3638;48.820;9.244;2023-06-24T06:53:00;5.57;;;4.10;;
7193;SDS011;3638;48.820;9.244;2023-06-24T06:55:29;5.82;;;4.30;;
7193;SDS011;3638;48.820;9.244;2023-06-24T06:57:55;4.80;;;4.30;;
7193;SDS011;3638;48.820;9.244;2023-06-24T07:00:22;7.82;;;4.65;;
7193;SDS011;3638;48.820;9.244;2023-06-24T07:02:49;5.55;;;4.70;;
7193;SDS011;3638;48.820;9.244;2023-06-24T07:05:16;5.00;;;4.38;;
7193;SDS011;3638;48.820;9.244;2023-06-24T07:07:43;5.72;;;4.35;;
7193;SDS011;3638;48.820;9.244;2023-06-24T07:10:10;4.65;;;4.18;;
7193;SDS011;3638;48.820;9.244;2023-06-24T07:12:39;4.70;;;4.25;;
7193;SDS011;3638;48.820;9.244;2023-06-24T07:15:06;5.15;;;4.35;;
7193;SDS011;3638;48.820;9.244;2023-06-24T07:17:35;4.50;;;4.10;;
7193;SDS011;3638;48.820;9.244;2023-06-24T07:20:02;5.40;;;4.00;;
7193;SDS011;3638;48.820;9.244;2023-06-24T07:22:30;4.45;;;4.03;;
7193;SDS011;3638;48.820;9.244;2023-06-24T07:24:57;7.10;;;4.05;;
7193;SDS011;3638;48.820;9.244;2023-06-24T07:27:25;4.38;;;3.97;;
7193;SDS011;3638;48.820;9.244;2023-06-24T07:29:53;4.43;;;4.03;;
7193;SDS011;3638;48.820;9.244;2023-06-24T07:32:20;4.80;;;3.58;;
7193;SDS011;3638;48.820;9.244;2023-06-24T07:34:47;4.45;;;3.92;;
7193;SDS011;3638;48.820;9.244;2023-06-24T07:37:14;4.68;;;3.95;;
7193;SDS011;3638;48.820;9.244;2023-06-24T07:39:41;4.93;;;3.80;;
7193;SDS011;3638;48.820;9.244;2023-06-24T07:42:08;4.10;;;3.70;;
7193;SDS011;3638;48.820;9.244;2023-06-24T07:44:34;4.25;;;3.70;;
7193;SDS011;3638;48.820;9.244;2023-06-24T07:47:06;4.07;;;3.67;;
7193;SDS011;3638;48.820;9.244;2023-06-24T07:49:33;6.00;;;3.70;;
7193;SDS011;3638;48.820;9.244;2023-06-24T07:51:59;3.80;;;3.50;;
7193;SDS011;3638;48.820;9.244;2023-06-24T07:54:27;4.85;;;3.70;;
7193;SDS011;3638;48.820;9.244;2023-06-24T07:56:54;5.47;;;3.88;;
7193;SDS011;3638;48.820;9.244;2023-06-24T07:59:20;4.72;;;3.88;;
7193;SDS011;3638;48.820;9.244;2023-06-24T08:01:47;3.70;;;3.10;;
7193;SDS011;3638;48.820;9.244;2023-06-24T08:04:15;4.80;;;3.58;;
7193;SDS011;3638;48.820;9.244;2023-06-24T08:06:42;4.00;;;3.60;;
7193;SDS011;3638;48.820;9.244;2023-06-24T08:09:09;3.88;;;3.58;;
7193;SDS011;3638;48.820;9.244;2023-06-24T08:11:36;5.47;;;3.92;;
7193;SDS011;3638;48.820;9.244;2023-06-24T08:14:03;5.40;;;3.67;;
7193;SDS011;3638;48.820;9.244;2023-06-24T08:16:30;3.88;;;3.58;;
7193;SDS011;3638;48.820;9.244;2023-06-24T08:18:57;4.07;;;3.70;;
7193;SDS011;3638;48.820;9.244;2023-06-24T08:21:25;4.38;;;3.97;;
7193;SDS011;3638;48.820;9.244;2023-06-24T08:23:52;4.10;;;3.70;;
7193;SDS011;3638;48.820;9.244;2023-06-24T08:26:19;4.30;;;3.63;;
7193;SDS011;3638;48.820;9.244;2023-06-24T08:28:46;4.50;;;3.75;;
7193;SDS011;3638;48.820;9.244;2023-06-24T08:31:14;4.20;;;3.80;;
7193;SDS011;3638;48.820;9.244;2023-06-24T08:33:43;3.85;;;3.55;;
7193;SDS011;3638;48.820;9.244;2023-06-24T08:36:11;5.00;;;3.53;;
7193;SDS011;3638;48.820;9.244;2023-06-24T08:38:39;4.57;;;3.55;;
7193;SDS011;3638;48.820;9.244;2023-06-24T08:41:06;4.35;;;3.92;;
7193;SDS011;3638;48.820;9.244;2023-06-24T08:43:33;4.60;;;3.70;;
7193;SDS011;3638;48.820;9.244;2023-06-24T08:46:00;4.38;;;3.80;;
7193;SDS011;3638;48.820;9.244;2023-06-24T08:48:27;4.43;;;3.90;;
7193;SDS011;3638;48.820;9.244;2023-06-24T08:50:56;3.78;;;3.47;;
7193;SDS011;3638;48.820;9.244;2023-06-24T08:53:27;3.90;;;3.53;;
7193;SDS011;3638;48.820;9.244;2023-06-24T08:55:56;4.30;;;3.50;;
7193;SDS011;3638;48.820;9.244;2023-06-24T08:58:23;3.60;;;3.30;;
7193;SDS011;3638;48.820;9.244;2023-06-24T09:00:51;3.60;;;3.30;;
7193;SDS011;3638;48.820;9.244;2023-06-24T09:03:18;4.32;;;3.60;;
7193;SDS011;3638;48.820;9.244;2023-06-24T09:05:45;4.22;;;3.83;;
7193;SDS011;3638;48.820;9.244;2023-06-24T09:08:13;4.28;;;3.88;;
7193;SDS011;3638;48.820;9.244;2023-06-24T09:10:40;3.90;;;3.53;;
7193;SDS011;3638;48.820;9.244;2023-06-24T09:13:09;5.60;;;3.70;;
7193;SDS011;3638;48.820;9.244;2023-06-24T09:15:36;4.43;;;3.83;;
7193;SDS011;3638;48.820;9.244;2023-06-24T09:18:04;4.07;;;3.67;;
7193;SDS011;3638;48.820;9.244;2023-06-24T09:20:32;3.67;;;3.05;;
7193;SDS011;3638;48.820;9.244;2023-06-24T09:23:04;3.50;;;3.20;;
7193;SDS011;3638;48.820;9.244;2023-06-24T09:25:31;6.13;;;3.20;;
7193;SDS011;3638;48.820;9.244;2023-06-24T09:27:58;3.17;;;2.92;;
7193;SDS011;3638;48.820;9.244;2023-06-24T09:30:27;4.00;;;3.60;;
7193;SDS011;3638;48.820;9.244;2023-06-24T09:32:54;4.10;;;3.33;;
7193;SDS011;3638;48.820;9.244;2023-06-24T09:35:22;4.00;;;3.70;;
7193;SDS011;3638;48.820;9.244;2023-06-24T09:37:51;3.97;;;3.58;;
7193;SDS011;3638;48.820;9.244;2023-06-24T09:40:18;4.50;;;3.17;;
7193;SDS011;3638;48.820;9.244;2023-06-24T09:42:49;3.85;;;3.45;;
7193;SDS011;3638;48.820;9.244;2023-06-24T09:45:21;3.50;;;3.20;;
7193;SDS011;3638;48.820;9.244;2023-06-24T09:47:51;3.95;;;3.00;;
7193;SDS011;3638;48.820;9.244;2023-06-24T09:50:18;3.58;;;3.25;;
7193;SDS011;3638;48.820;9.244;2023-06-24T09:52:46;3.65;;;3.13;;
7193;SDS011;3638;48.820;9.244;2023-06-24T09:55:14;3.50;;;3.20;;
7193;SDS011;3638;48.820;9.244;2023-06-24T09:57:44;3.45;;;3.05;;
7193;SDS011;3638;48.820;9.244;2023-06-24T10:00:13;3.58;;;3.08;;
7193;SDS011;3638;48.820;9.244;2023-06-24T10:02:42;3.80;;;3.30;;
7193;SDS011;3638;48.820;9.244;2023-06-24T10:05:12;3.67;;;3.28;;
7193;SDS011;3638;48.820;9.244;2023-06-24T10:07:39;3.33;;;3.03;;
7193;SDS011;3638;48.820;9.244;2023-06-24T10:10:07;3.55;;;2.70;;
7193;SDS011;3638;48.820;9.244;2023-06-24T10:12:35;2.90;;;2.70;;
7193;SDS011;3638;48.820;9.244;2023-06-24T10:15:02;4.13;;;2.83;;
7193;SDS011;3638;48.820;9.244;2023-06-24T10:17:31;4.85;;;3.15;;
7193;SDS011;3638;48.820;9.244;2023-06-24T10:19:59;3.90;;;2.85;;
7193;SDS011;3638;48.820;9.244;2023-06-24T10:22:32;4.40;;;3.05;;
7193;SDS011;3638;48.820;9.244;2023-06-24T10:25:01;3.70;;;3.40;;
7193;SDS011;3638;48.820;9.244;2023-06-24T10:27:37;3.35;;;3.00;;
7193;SDS011;3638;48.820;9.244;2023-06-24T10:30:07;4.18;;;2.90;;
7193;SDS011;3638;48.820;9.244;2023-06-24T10:32:39;4.13;;;3.03;;
7193;SDS011;3638;48.820;9.244;2023-06-24T10:35:11;3.47;;;2.88;;
7193;SDS011;3638;48.820;9.244;2023-06-24T10:37:57;3.50;;;3.20;;
7193;SDS011;3638;48.820;9.244;2023-06-24T10:40:35;2.50;;;2.30;;
7193;SDS011;3638;48.820;9.244;2023-06-24T10:43:23;3.22;;;2.92;;
7193;SDS011;3638;48.820;9.244;2023-06-24T10:45:53;2.80;;;2.60;;
7193;SDS011;3638;48.820;9.244;2023-06-24T10:48:21;5.40;;;3.38;;
7193;SDS011;3638;48.820;9.244;2023-06-24T10:50:48;3.30;;;3.00;;
7193;SDS011;3638;48.820;9.244;2023-06-24T10:53:17;5.47;;;3.10;;
7193;SDS011;3638;48.820;9.244;2023-06-24T10:55:44;3.65;;;3.08;;
7193;SDS011;3638;48.820;9.244;2023-06-24T10:58:12;3.22;;;2.92;;
7193;SDS011;3638;48.820;9.244;2023-06-24T11:00:40;3.70;;;3.10;;
7193;SDS011;3638;48.820;9.244;2023-06-24T11:03:10;3.75;;;3.28;;
7193;SDS011;3638;48.820;9.244;2023-06-24T11:05:38;5.50;;;3.13;;
7193;SDS011;3638;48.820;9.244;2023-06-24T11:08:07;4.05;;;3.47;;
7193;SDS011;3638;48.820;9.244;2023-06-24T11:10:42;4.38;;;3.65;;
7193;SDS011;3638;48.820;9.244;2023-06-24T11:13:10;6.82;;;3.80;;
7193;SDS011;3638;48.820;9.244;2023-06-24T11:15:37;3.80;;;3.28;;
7193;SDS011;3638;48.820;9.244;2023-06-24T11:18:07;5.00;;;3.40;;
7193;SDS011;3638;48.820;9.244;2023-06-24T11:20:36;3.40;;;3.10;;
7193;SDS011;3638;48.820;9.244;2023-06-24T11:23:06;5.50;;;3.35;;
7193;SDS011;3638;48.820;9.244;2023-06-24T11:25:38;3.28;;;2.95;;
7193;SDS011;3638;48.820;9.244;2023-06-24T11:28:13;4.45;;;3.45;;
7193;SDS011;3638;48.820;9.244;2023-06-24T11:30:41;3.47;;;3.17;;
7193;SDS011;3638;48.820;9.244;2023-06-24T11:33:08;4.20;;;3.72;;
7193;SDS011;3638;48.820;9.244;2023-06-24T11:35:35;3.30;;;3.00;;
7193;SDS011;3638;48.820;9.244;2023-06-24T11:38:02;4.10;;;3.70;;
7193;SDS011;3638;48.820;9.244;2023-06-24T11:40:30;4.68;;;3.45;;
7193;SDS011;3638;48.820;9.244;2023-06-24T11:43:00;3.38;;;3.08;;
7193;SDS011;3638;48.820;9.244;2023-06-24T11:45:29;3.20;;;2.90;;
7193;SDS011;3638;48.820;9.244;2023-06-24T11:48:01;3.97;;;3.35;;
7193;SDS011;3638;48.820;9.244;2023-06-24T11:50:33;3.50;;;3.20;;
7193;SDS011;3638;48.820;9.244;2023-06-24T11:53:02;3.58;;;2.90;;
7193;SDS011;3638;48.820;9.244;2023-06-24T11:55:30;3.58;;;3.28;;
7193;SDS011;3638;48.820;9.244;2023-06-24T11:57:58;3.25;;;2.95;;
7193;SDS011;3638;48.820;9.244;2023-06-24T12:00:27;5.97;;;3.50;;
7193;SDS011;3638;48.820;9.244;2023-06-24T12:02:57;5.22;;;3.20;;
7193;SDS011;3638;48.820;9.244;2023-06-24T12:05:26;3.17;;;2.88;;
7193;SDS011;3638;48.820;9.244;2023-06-24T12:07:55;4.93;;;3.50;;
7193;SDS011;3638;48.820;9.244;2023-06-24T12:10:24;3.42;;;2.97;;
7193;SDS011;3638;48.820;9.244;2023-06-24T12:12:51;4.10;;;3.10;;
7193;SDS011;3638;48.820;9.244;2023-06-24T12:15:18;3.78;;;3.10;;
7193;SDS011;3638;48.820;9.244;2023-06-24T12:17:47;4.00;;;3.33;;
7193;SDS011;3638;48.820;9.244;2023-06-24T12:20:14;3.53;;;3.22;;
7193;SDS011;3638;48.820;9.244;2023-06-24T12:22:42;3.40;;;3.10;;
7193;SDS011;3638;48.820;9.244;2023-06-24T12:25:11;3.72;;;3.35;;
7193;SDS011;3638;48.820;9.244;2023-06-24T12:27:38;3.42;;;3.00;;
7193;SDS011;3638;48.820;9.244;2023-06-24T12:30:06;3.30;;;2.78;;
7193;SDS011;3638;48.820;9.244;2023-06-24T12:32:34;4.22;;;3.22;;
7193;SDS011;3638;48.820;9.244;2023-06-24T12:35:03;3.38;;;3.05;;
7193;SDS011;3638;48.820;9.244;2023-06-24T12:37:31;4.10;;;3.15;;
7193;SDS011;3638;48.820;9.244;2023-06-24T12:39:59;3.92;;;3.47;;
7193;SDS011;3638;48.820;9.244;2023-06-24T12:42:26;4.15;;;3.35;;
7193;SDS011;3638;48.820;9.244;2023-06-24T12:44:54;3.28;;;2.85;;
7193;SDS011;3638;48.820;9.244;2023-06-24T12:47:21;3.08;;;2.85;;
7193;SDS011;3638;48.820;9.244;2023-06-24T12:49:48;3.22;;;2.92;;
7193;SDS011;3638;48.820;9.244;2023-06-24T12:52:17;3.97;;;2.67;;
7193;SDS011;3638;48.820;9.244;2023-06-24T12:54:43;3.70;;;3.30;;
7193;SDS011;3638;48.820;9.244;2023-06-24T12:57:10;3.20;;;2.90;;
7193;SDS011;3638;48.820;9.244;2023-06-24T12:59:37;4.93;;;4.40;;
7193;SDS011;3638;48.820;9.244;2023-06-24T13:02:04;3.70;;;3.35;;
7193;SDS011;3638;48.820;9.244;2023-06-24T13:04:31;3.33;;;3.03;;
7193;SDS011;3638;48.820;9.244;2023-06-24T13:06:58;3.83;;;3.17;;
7193;SDS011;3638;48.820;9.244;2023-06-24T13:09:27;3.80;;;3.40;;
7193;SDS011;3638;48.820;9.244;2023-06-24T13:11:54;3.28;;;2.97;;
7193;SDS011;3638;48.820;9.244;2023-06-24T13:14:20;3.85;;;3.03;;
7193;SDS011;3638;48.820;9.244;2023-06-24T13:16:50;5.43;;;3.80;;
7193;SDS011;3638;48.820;9.244;2023-06-24T13:19:17;3.40;;;3.10;;
7193;SDS011;3638;48.820;9.244;2023-06-24T13:21:44;3.80;;;3.40;;
7193;SDS011;3638;48.820;9.244;2023-06-24T13:24:11;3.60;;;3.20;;
7193;SDS011;3638;48.820;9.244;2023-06-24T13:26:39;3.83;;;3.42;;
7193;SDS011;3638;48.820;9.244;2023-06-24T13:29:06;4.30;;;3.45;;
7193;SDS011;3638;48.820;9.244;2023-06-24T13:31:33;3.92;;;3.03;;
7193;SDS011;3638;48.820;9.244;2023-06-24T13:34:00;4.20;;;3.25;;
7193;SDS011;3638;48.820;9.244;2023-06-24T13:36:30;3.60;;;3.15;;
7193;SDS011;3638;48.820;9.244;2023-06-24T13:39:00;3.22;;;2.92;;
7193;SDS011;3638;48.820;9.244;2023-06-24T13:41:28;3.83;;;3.42;;
7193;SDS011;3638;48.820;9.244;2023-06-24T13:43:58;3.90;;;3.50;;
7193;SDS011;3638;48.820;9.244;2023-06-24T13:46:25;3.47;;;3.17;;
7193;SDS011;3638;48.820;9.244;2023-06-24T13:48:53;3.70;;;3.28;;
7193;SDS011;3638;48.820;9.244;2023-06-24T13:51:20;5.60;;;3.15;;
7193;SDS011;3638;48.820;9.244;2023-06-24T13:53:47;4.85;;;3.50;;
7193;SDS011;3638;48.820;9.244;2023-06-24T13:56:16;3.83;;;2.78;;
7193;SDS011;3638;48.820;9.244;2023-06-24T13:58:44;4.15;;;3.35;;
7193;SDS011;3638;48.820;9.244;2023-06-24T14:01:13;3.30;;;3.00;;
7193;SDS011;3638;48.820;9.244;2023-06-24T14:03:40;3.65;;;3.25;;
7193;SDS011;3638;48.820;9.244;2023-06-24T14:06:08;3.97;;;3.08;;
7193;SDS011;3638;48.820;9.244;2023-06-24T14:08:35;4.82;;;3.58;;
7193;SDS011;3638;48.820;9.244;2023-06-24T14:11:02;4.05;;;3.65;;
7193;SDS011;3638;48.820;9.244;2023-06-24T14:13:29;3.20;;;2.90;;
7193;SDS011;3638;48.820;9.244;2023-06-24T14:15:57;4.05;;;3.40;;
7193;SDS011;3638;48.820;9.244;2023-06-24T14:18:25;4.78;;;3.53;;
7193;SDS011;3638;48.820;9.244;2023-06-24T14:20:52;3.50;;;3.20;;
7193;SDS011;3638;48.820;9.244;2023-06-24T14:23:19;3.20;;;2.90;;
7193;SDS011;3638;48.820;9.244;2023-06-24T14:25:46;3.92;;;3.20;;
7193;SDS011;3638;48.820;9.244;2023-06-24T14:28:13;3.35;;;3.03;;
7193;SDS011;3638;48.820;9.244;2023-06-24T14:30:40;3.92;;;3.53;;
7193;SDS011;3638;48.820;9.244;2023-06-24T14:33:07;3.03;;;2.80;;
7193;SDS011;3638;48.820;9.244;2023-06-24T14:35:35;3.40;;;3.10;;
7193;SDS011;3638;48.820;9.244;2023-06-24T14:38:02;3.65;;;3.35;;
7193;SDS011;3638;48.820;9.244;2023-06-24T14:40:31;3.50;;;3.20;;
7193;SDS011;3638;48.820;9.244;2023-06-24T14:42:58;3.47;;;3.13;;
7193;SDS011;3638;48.820;9.244;2023-06-24T14:45:25;3.25;;;2.95;;
7193;SDS011;3638;48.820;9.244;2023-06-24T14:47:52;3.33;;;3.00;;
7193;SDS011;3638;48.820;9.244;2023-06-24T14:50:20;3.47;;;3.17;;
7193;SDS011;3638;48.820;9.244;2023-06-24T14:52:48;4.15;;;2.83;;
7193;SDS011;3638;48.820;9.244;2023-06-24T14:55:15;4.47;;;3.65;;
7193;SDS011;3638;48.820;9.244;2023-06-24T14:57:42;3.90;;;3.42;;
7193;SDS011;3638;48.820;9.244;2023-06-24T15:00:09;3.55;;;3.25;;
7193;SDS011;3638;48.820;9.244;2023-06-24T15:02:37;3.42;;;2.97;;
7193;SDS011;3638;48.820;9.244;2023-06-24T15:05:04;3.63;;;3.33;;
7193;SDS011;3638;48.820;9.244;2023-06-24T15:07:31;3.63;;;3.05;;
7193;SDS011;3638;48.820;9.244;2023-06-24T15:09:59;3.50;;;3.20;;
7193;SDS011;3638;48.820;9.244;2023-06-24T15:12:26;3.22;;;2.92;;
7193;SDS011;3638;48.820;9.244;2023-06-24T15:14:53;3.67;;;3.10;;
7193;SDS011;3638;48.820;9.244;2023-06-24T15:17:20;3.80;;;3.40;;
7193;SDS011;3638;48.820;9.244;2023-06-24T15:19:48;3.38;;;3.05;;
7193;SDS011;3638;48.820;9.244;2023-06-24T15:22:14;3.50;;;3.20;;
7193;SDS011;3638;48.820;9.244;2023-06-24T15:24:41;3.25;;;2.95;;